Airfield :
LOGIN :

Register | Disclaimer

   EN    FR    IT 

 










Legend :    VFR   Marginal VFR   IFR   Intensive IFR   Very Intensive IFR
Visi :
Ceiling :
>= 8 km
>= 3000ft
5 to 8 km
1000 to 3000 ft
1500m to 5 km
500 to 1000 ft
800 to 1500m
200 to 500 ft
< 800m
< 200 ft
Symbols :   Thunderstorms  Fog  Heavy snow  Heavy precipitations  Wind > 20 kt
SIGMETs :     Misc.  Thunderstorms  Icing  Turbulence  Mountain Waves  Volcanic Ashes







- Airport Elevation : 1260 ft
- IATA code : LDE
- Download approach charts


LFBT - Tarbes / Ossun

CURRENT METAR :
  • 230630Z AUTO 16004KT CAVOK 07/05 Q1029 TEMPO BKN009

EXPIRED METARs :
  • 230600Z AUTO 18006KT CAVOK 08/06 Q1029 TEMPO BKN009
  • 230530Z AUTO 17004KT CAVOK 07/06 Q1029 TEMPO BKN009
  • 230500Z AUTO 18005KT 9999 FEW010 08/06 Q1029 TEMPO BKN009
  • 230430Z AUTO 16004KT 120V190 9999 OVC010 09/08 Q1029 BECMG NSC
  • 230400Z AUTO 16006KT 9999 OVC008 09/08 Q1029 NOSIG

TAF TAF LFBT
Valid from the 23 at 06:00 until the 24 at 06:00 UTC


230500Z 2306/2406 VRB03KT CAVOK
TEMPO 2306/2308 BKN009
No reported NOTAMs for that airfield.



MET'MAP, your aeronautical weather chart ! - Copyright ORBIFLY December 2007 - Disclaimer

ORBIFLY MET'MAP TEAM :

Programming & Development : Alexandra Zaïnal
Concept & Development : Baudouin d'Aumeries
Co-Development & Prog : Marc-Olivier Méhu
Technical & hardware support : Manuel Goepfert

Contact : metmap@orbifly.com




SOURCES & CREDITS :

   NOAA